createdAt,value
2019-04-07T00:00:43.646Z,38.60
2019-04-07T00:03:10.681Z,40.43
2019-04-07T00:05:37.783Z,42.33
2019-04-07T00:08:04.715Z,41.57
2019-04-07T00:10:31.550Z,38.47
2019-04-07T00:12:58.295Z,40.00
2019-04-07T00:15:25.808Z,53.67
2019-04-07T00:17:53.211Z,34.93
2019-04-07T00:20:20.015Z,37.40
2019-04-07T00:22:46.712Z,42.00
2019-04-07T00:25:13.624Z,37.03
2019-04-07T00:27:40.486Z,47.07
2019-04-07T00:30:07.661Z,33.00
2019-04-07T00:32:34.998Z,40.73
2019-04-07T00:35:01.820Z,38.90
2019-04-07T00:37:29.479Z,46.03
2019-04-07T00:39:56.686Z,38.50
2019-04-07T00:42:23.700Z,36.73
2019-04-07T00:44:50.836Z,35.00
2019-04-07T00:47:17.642Z,38.50
2019-04-07T00:49:44.362Z,36.50
2019-04-07T00:52:12.907Z,43.70
2019-04-07T00:54:40.840Z,35.53
2019-04-07T00:57:07.634Z,33.10
2019-04-07T00:59:34.340Z,37.17
2019-04-07T01:02:01.467Z,36.40
2019-04-07T01:04:29.049Z,37.60
2019-04-07T01:06:56.029Z,35.93
2019-04-07T01:09:23.281Z,32.07
2019-04-07T01:11:50.744Z,35.20
2019-04-07T01:14:18.071Z,36.67
2019-04-07T01:16:45.663Z,47.20
2019-04-07T01:19:13.367Z,36.20
2019-04-07T01:21:40.415Z,38.17
2019-04-07T01:24:07.317Z,38.93
2019-04-07T01:26:34.111Z,50.83
2019-04-07T01:29:01.404Z,40.97
2019-04-07T01:31:28.675Z,40.27
2019-04-07T01:33:55.390Z,34.83
2019-04-07T01:36:22.591Z,32.80
2019-04-07T01:38:49.505Z,35.57
2019-04-07T01:41:25.400Z,36.87
2019-04-07T01:43:57.923Z,54.53
2019-04-07T01:46:35.403Z,36.60
2019-04-07T01:49:14.895Z,33.17
2019-04-07T01:52:00.795Z,40.17
2019-04-07T01:54:37.231Z,39.13
2019-04-07T01:57:12.092Z,35.00
2019-04-07T01:59:57.341Z,30.73
2019-04-07T02:02:42.993Z,34.53
2019-04-07T02:05:28.783Z,55.67
2019-04-07T02:08:22.059Z,43.60
2019-04-07T02:11:05.095Z,32.47
2019-04-07T02:13:58.375Z,34.33
2019-04-07T02:16:30.207Z,32.57
2019-04-07T02:19:08.769Z,38.20
2019-04-07T02:21:46.605Z,33.93
2019-04-07T02:24:17.966Z,35.03
2019-04-07T02:26:54.358Z,36.33
2019-04-07T02:29:46.561Z,37.57
2019-04-07T02:32:51.201Z,30.97
2019-04-07T02:35:28.040Z,33.33
2019-04-07T02:37:59.674Z,37.57
2019-04-07T02:40:46.866Z,32.50
2019-04-07T02:43:32.948Z,33.60
2019-04-07T02:46:33.280Z,34.00
2019-04-07T02:49:26.329Z,36.40
2019-04-07T02:52:18.943Z,34.90
2019-04-07T02:55:13.100Z,35.27
2019-04-07T02:57:58.110Z,33.87
2019-04-07T03:00:32.601Z,35.23
2019-04-07T03:03:34.915Z,39.67
2019-04-07T03:06:32.461Z,31.23
2019-04-07T03:08:51.509Z,33.30
2019-04-07T03:11:29.084Z,39.50
2019-04-07T03:14:01.806Z,35.30
2019-04-07T03:16:47.501Z,38.33
2019-04-07T03:19:37.265Z,39.70
2019-04-07T03:22:29.301Z,29.43
2019-04-07T03:25:07.126Z,33.43
2019-04-07T03:27:57.336Z,34.87
2019-04-07T03:30:54.837Z,34.30
2019-04-07T03:33:31.900Z,33.13
2019-04-07T03:36:06.792Z,37.87
2019-04-07T03:38:51.432Z,32.63
2019-04-07T03:41:29.400Z,32.60
2019-04-07T03:44:07.737Z,36.50
2019-04-07T03:46:41.304Z,36.33
2019-04-07T03:49:13.794Z,37.57
2019-04-07T03:51:49.751Z,40.57
2019-04-07T03:54:25.334Z,35.87
2019-04-07T03:57:17.569Z,33.17
2019-04-07T03:59:55.638Z,32.30
2019-04-07T04:02:31.721Z,37.97
2019-04-07T04:05:06.935Z,36.87
2019-04-07T04:07:38.723Z,46.33
2019-04-07T04:10:12.212Z,45.00
2019-04-07T04:12:59.299Z,33.77
2019-04-07T04:15:32.885Z,37.17
2019-04-07T04:18:01.083Z,44.23
2019-04-07T04:20:28.261Z,41.40
2019-04-07T04:22:54.984Z,37.73
2019-04-07T04:25:21.582Z,40.37
2019-04-07T04:27:48.621Z,38.07
2019-04-07T04:30:15.621Z,37.73
2019-04-07T04:32:42.254Z,41.00
2019-04-07T04:35:09.266Z,35.63
2019-04-07T04:37:42.558Z,37.00
2019-04-07T04:40:05.515Z,37.30
2019-04-07T04:42:33.740Z,38.47
2019-04-07T04:45:02.189Z,42.77
2019-04-07T04:47:29.033Z,36.30
2019-04-07T04:49:55.657Z,38.83
2019-04-07T04:52:22.262Z,38.20
2019-04-07T04:54:49.648Z,42.13
2019-04-07T04:57:16.453Z,41.47
2019-04-07T04:59:43.086Z,41.53
2019-04-07T05:02:10.697Z,33.80
2019-04-07T05:04:37.507Z,34.50
2019-04-07T05:07:04.278Z,42.77
2019-04-07T05:09:41.548Z,48.00
2019-04-07T05:11:59.986Z,42.47
2019-04-07T05:14:27.442Z,39.90
2019-04-07T05:16:54.807Z,39.30
2019-04-07T05:19:21.621Z,47.60
2019-04-07T05:21:48.352Z,43.17
2019-04-07T05:24:16.910Z,44.93
2019-04-07T05:26:43.732Z,50.80
2019-04-07T05:29:10.586Z,43.83
2019-04-07T05:31:38.519Z,50.03
2019-04-07T05:34:06.510Z,38.97
2019-04-07T05:36:33.315Z,52.67
2019-04-07T05:39:00.084Z,43.60
2019-04-07T05:41:27.195Z,52.80
2019-04-07T05:43:53.964Z,53.40
2019-04-07T05:46:20.577Z,38.70
2019-04-07T05:48:47.529Z,39.77
2019-04-07T05:51:15.948Z,37.67
2019-04-07T05:53:46.316Z,35.43
2019-04-07T05:56:11.133Z,41.90
2019-04-07T05:58:40.695Z,38.70
2019-04-07T06:01:06.369Z,38.50
2019-04-07T06:03:33.046Z,44.33
2019-04-07T06:06:00.472Z,39.57
2019-04-07T06:08:32.559Z,48.93
2019-04-07T06:11:00.031Z,45.13
2019-04-07T06:13:24.743Z,43.93
2019-04-07T06:15:53.112Z,46.60
2019-04-07T06:18:20.029Z,48.10
2019-04-07T06:20:46.733Z,40.17
2019-04-07T06:23:13.831Z,39.73
2019-04-07T06:25:42.386Z,41.07
2019-04-07T06:28:09.657Z,38.77
2019-04-07T06:30:37.175Z,38.83
2019-04-07T06:33:06.958Z,41.30
2019-04-07T06:35:33.614Z,38.90
2019-04-07T06:38:05.314Z,39.43
2019-04-07T06:40:29.386Z,45.93
2019-04-07T06:42:56.771Z,41.10
2019-04-07T06:45:28.275Z,43.80
2019-04-07T06:47:57.033Z,42.70
2019-04-07T06:50:49.532Z,36.07
2019-04-07T06:53:34.834Z,38.60
2019-04-07T06:56:19.755Z,42.47
2019-04-07T06:58:55.837Z,40.10
2019-04-07T07:01:41.128Z,37.70
2019-04-07T07:04:26.524Z,43.67
2019-04-07T07:07:09.918Z,46.23
2019-04-07T07:10:00.980Z,45.17
2019-04-07T07:12:47.500Z,44.93
2019-04-07T07:15:35.379Z,42.50
2019-04-07T07:18:23.451Z,41.87
2019-04-07T07:21:02.692Z,45.40
2019-04-07T07:23:33.167Z,37.43
2019-04-07T07:26:02.901Z,43.73
2019-04-07T07:28:28.521Z,45.40
2019-04-07T07:30:55.701Z,37.80
2019-04-07T07:33:23.427Z,40.70
2019-04-07T07:35:50.813Z,41.50
2019-04-07T07:38:18.079Z,37.90
2019-04-07T07:40:47.412Z,34.37
2019-04-07T07:43:13.536Z,35.40
2019-04-07T07:45:42.875Z,39.40
2019-04-07T07:48:08.653Z,36.47
2019-04-07T07:50:38.068Z,36.80
2019-04-07T07:53:04.607Z,39.50
2019-04-07T07:55:35.968Z,34.63
2019-04-07T07:58:01.016Z,40.07
2019-04-07T08:00:27.844Z,32.50
2019-04-07T08:02:54.708Z,38.30
2019-04-07T08:05:21.540Z,35.93
2019-04-07T08:07:50.201Z,35.87
2019-04-07T08:10:17.203Z,35.83
2019-04-07T08:12:43.851Z,32.03
2019-04-07T08:15:10.477Z,42.13
2019-04-07T08:17:37.658Z,34.60
2019-04-07T08:20:05.683Z,37.23
2019-04-07T08:22:39.270Z,37.80
2019-04-07T08:25:01.052Z,35.80
2019-04-07T08:27:31.718Z,35.07
2019-04-07T08:29:57.034Z,31.37
2019-04-07T08:32:26.451Z,29.60
2019-04-07T08:34:52.367Z,33.87
2019-04-07T08:37:21.805Z,32.63
2019-04-07T08:39:48.701Z,31.67
2019-04-07T08:42:18.575Z,33.17
2019-04-07T08:44:44.158Z,34.03
2019-04-07T08:47:14.555Z,32.23
2019-04-07T08:49:39.348Z,27.60
2019-04-07T08:52:09.679Z,30.23
2019-04-07T08:54:35.518Z,37.17
2019-04-07T08:57:02.266Z,28.40
2019-04-07T08:59:29.129Z,31.93
2019-04-07T09:01:55.921Z,36.23
2019-04-07T09:04:22.527Z,31.73
2019-04-07T09:06:51.240Z,31.97
2019-04-07T09:09:17.853Z,24.60
2019-04-07T09:11:44.428Z,27.50
2019-04-07T09:14:11.150Z,30.43
2019-04-07T09:16:58.137Z,27.00
2019-04-07T09:19:54.708Z,35.03
2019-04-07T09:22:44.139Z,24.53
2019-04-07T09:25:20.352Z,25.27
2019-04-07T09:27:56.179Z,25.23
2019-04-07T09:30:29.660Z,23.37
2019-04-07T09:33:10.076Z,25.47
2019-04-07T09:35:56.678Z,39.00
2019-04-07T09:38:56.959Z,24.13
2019-04-07T09:41:42.817Z,21.40
2019-04-07T09:44:18.464Z,38.67
2019-04-07T09:47:04.263Z,28.87
2019-04-07T09:49:57.316Z,32.20
2019-04-07T09:52:34.905Z,24.13
2019-04-07T09:55:14.106Z,24.13
2019-04-07T09:57:59.224Z,24.17
2019-04-07T10:00:57.193Z,27.23
2019-04-07T10:03:32.724Z,38.00
2019-04-07T10:06:19.078Z,30.53
2019-04-07T10:08:52.411Z,23.23
2019-04-07T10:11:38.489Z,26.53
2019-04-07T10:14:15.684Z,27.47
2019-04-07T10:17:00.969Z,24.17
2019-04-07T10:19:45.704Z,27.07
2019-04-07T10:22:35.083Z,24.93
2019-04-07T10:25:14.385Z,24.47
2019-04-07T10:27:58.297Z,21.23
2019-04-07T10:30:43.715Z,25.07
2019-04-07T10:33:22.563Z,22.87
2019-04-07T10:36:09.229Z,25.83
2019-04-07T10:38:43.793Z,21.33
2019-04-07T10:41:22.823Z,25.40
2019-04-07T10:44:16.074Z,23.40
2019-04-07T10:47:07.083Z,25.07
2019-04-07T10:50:09.009Z,24.07
2019-04-07T10:52:45.916Z,24.67
2019-04-07T10:55:20.639Z,23.10
2019-04-07T10:58:06.148Z,24.50
2019-04-07T11:00:49.431Z,24.30
2019-04-07T11:03:28.365Z,29.20
2019-04-07T11:06:16.066Z,21.30
2019-04-07T11:09:03.646Z,21.93
2019-04-07T11:11:53.412Z,25.87
2019-04-07T11:14:38.462Z,25.20
2019-04-07T11:17:40.819Z,21.90
2019-04-07T11:20:13.231Z,24.70
2019-04-07T11:23:15.524Z,26.13
2019-04-07T11:25:49.595Z,24.10
2019-04-07T11:28:22.591Z,24.70
2019-04-07T11:30:54.191Z,23.40
2019-04-07T11:33:26.915Z,23.80
2019-04-07T11:36:02.427Z,24.00
2019-04-07T11:38:45.160Z,27.53
2019-04-07T11:41:24.385Z,21.43
2019-04-07T11:44:12.807Z,24.27
2019-04-07T11:46:48.367Z,24.53
2019-04-07T11:49:19.828Z,21.10
2019-04-07T11:51:55.538Z,21.63
2019-04-07T11:54:27.507Z,25.07
2019-04-07T11:57:09.869Z,26.57
2019-04-07T12:00:00.027Z,29.83
2019-04-07T12:02:45.510Z,22.37
2019-04-07T12:05:31.212Z,25.40
2019-04-07T12:08:16.235Z,24.50
2019-04-07T12:11:14.183Z,28.50
2019-04-07T12:13:50.952Z,21.33
2019-04-07T12:16:28.640Z,25.00
2019-04-07T12:19:01.515Z,22.90
2019-04-07T12:21:36.957Z,23.53
2019-04-07T12:24:28.628Z,22.13
2019-04-07T12:27:06.803Z,19.50
2019-04-07T12:29:51.799Z,23.97
2019-04-07T12:32:50.844Z,17.93
2019-04-07T12:35:32.641Z,23.60
2019-04-07T12:38:12.246Z,23.40
2019-04-07T12:40:56.396Z,24.17
2019-04-07T12:43:29.126Z,21.00
2019-04-07T12:46:06.594Z,21.73
2019-04-07T12:48:45.151Z,15.83
2019-04-07T12:51:17.608Z,19.27
2019-04-07T12:53:53.599Z,17.23
2019-04-07T12:56:48.871Z,19.80
2019-04-07T12:59:24.140Z,18.70
2019-04-07T13:02:06.659Z,20.43
2019-04-07T13:04:38.284Z,18.67
2019-04-07T13:07:30.451Z,24.10
2019-04-07T13:10:07.253Z,25.37
2019-04-07T13:12:55.682Z,18.53
2019-04-07T13:15:34.651Z,20.73
2019-04-07T13:18:22.064Z,22.73
2019-04-07T13:21:02.238Z,22.73
2019-04-07T13:23:46.047Z,20.03
2019-04-07T13:26:33.245Z,26.20
2019-04-07T13:29:07.798Z,24.87
2019-04-07T13:31:43.994Z,21.87
2019-04-07T13:34:22.164Z,21.03
2019-04-07T13:37:07.979Z,19.77
2019-04-07T13:39:56.645Z,22.60
2019-04-07T13:42:33.831Z,21.33
2019-04-07T13:45:13.207Z,27.20
2019-04-07T13:47:57.904Z,24.57
2019-04-07T13:50:43.832Z,22.93
2019-04-07T13:53:27.941Z,22.00
2019-04-07T13:56:15.578Z,24.07
2019-04-07T13:58:56.608Z,22.07
2019-04-07T14:01:38.694Z,19.47
2019-04-07T14:04:24.220Z,19.20
2019-04-07T14:07:09.962Z,20.40
2019-04-07T14:09:49.565Z,21.30
2019-04-07T14:12:33.405Z,22.60
2019-04-07T14:15:07.539Z,24.80
2019-04-07T14:17:43.003Z,26.13
2019-04-07T14:20:17.533Z,19.67
2019-04-07T14:23:07.363Z,21.63
2019-04-07T14:25:49.419Z,15.90
2019-04-07T14:28:39.011Z,21.17
2019-04-07T14:31:24.046Z,22.80
2019-04-07T14:34:03.497Z,20.27
2019-04-07T14:36:48.639Z,18.03
2019-04-07T14:39:39.008Z,22.63
2019-04-07T14:42:29.230Z,19.00
2019-04-07T14:45:09.917Z,21.90
2019-04-07T14:47:42.502Z,23.23
2019-04-07T14:50:14.563Z,27.87
2019-04-07T14:53:01.955Z,21.53
2019-04-07T14:55:41.141Z,18.20
2019-04-07T14:58:22.639Z,21.77
2019-04-07T15:01:11.128Z,21.80
2019-04-07T15:03:37.755Z,23.47
2019-04-07T15:06:05.355Z,25.57
2019-04-07T15:08:37.328Z,23.37
2019-04-07T15:11:15.826Z,22.50
2019-04-07T15:13:45.453Z,29.10
2019-04-07T15:16:11.683Z,29.60
2019-04-07T15:18:38.351Z,28.63
2019-04-07T15:21:05.679Z,23.70
2019-04-07T15:23:33.452Z,21.73
2019-04-07T15:26:00.285Z,26.37
2019-04-07T15:28:29.768Z,21.77
2019-04-07T15:30:55.626Z,31.03
2019-04-07T15:33:22.394Z,24.10
2019-04-07T15:35:50.451Z,23.53
2019-04-07T15:38:17.406Z,19.37
2019-04-07T15:40:44.867Z,21.83
2019-04-07T15:43:12.503Z,20.63
2019-04-07T15:45:41.745Z,24.63
2019-04-07T15:48:08.333Z,21.80
2019-04-07T15:50:35.466Z,25.33
2019-04-07T15:53:02.755Z,25.30
2019-04-07T15:55:43.161Z,28.50
2019-04-07T15:57:58.783Z,27.63
2019-04-07T16:00:26.429Z,25.07
2019-04-07T16:02:54.806Z,24.47
2019-04-07T16:05:22.560Z,22.87
2019-04-07T16:07:53.168Z,24.83
2019-04-07T16:10:21.647Z,27.90
2019-04-07T16:12:51.268Z,27.77
2019-04-07T16:15:18.049Z,24.70
2019-04-07T16:17:47.218Z,21.73
2019-04-07T16:20:20.682Z,20.37
2019-04-07T16:22:45.834Z,26.20
2019-04-07T16:25:11.699Z,26.97
2019-04-07T16:27:39.704Z,23.80
2019-04-07T16:30:07.510Z,27.37
2019-04-07T16:32:34.196Z,24.70
2019-04-07T16:35:05.789Z,19.13
2019-04-07T16:37:33.478Z,25.20
2019-04-07T16:40:03.282Z,20.80
2019-04-07T16:42:29.775Z,27.33
2019-04-07T16:44:56.574Z,27.23
2019-04-07T16:47:25.924Z,26.63
2019-04-07T16:49:52.410Z,27.93
2019-04-07T16:52:20.382Z,26.30
2019-04-07T16:54:47.497Z,22.30
2019-04-07T16:57:15.218Z,24.53
2019-04-07T16:59:43.543Z,21.30
2019-04-07T17:02:10.436Z,32.93
2019-04-07T17:04:37.364Z,22.87
2019-04-07T17:07:07.608Z,20.53
2019-04-07T17:09:35.454Z,24.20
2019-04-07T17:12:02.392Z,28.47
2019-04-07T17:14:31.931Z,30.20
2019-04-07T17:16:57.991Z,35.90
2019-04-07T17:19:26.651Z,28.77
2019-04-07T17:21:53.434Z,27.83
2019-04-07T17:24:20.132Z,24.73
2019-04-07T17:26:47.016Z,25.83
2019-04-07T17:29:16.973Z,26.10
2019-04-07T17:31:42.161Z,25.90
2019-04-07T17:34:10.855Z,38.47
2019-04-07T17:36:39.220Z,24.53
2019-04-07T17:39:40.390Z,26.57
2019-04-07T17:42:11.927Z,28.10
2019-04-07T17:44:48.363Z,34.40
2019-04-07T17:47:31.462Z,44.80
2019-04-07T17:50:20.744Z,24.03
2019-04-07T17:53:06.415Z,33.37
2019-04-07T17:55:46.464Z,32.80
2019-04-07T17:58:32.072Z,39.50
2019-04-07T18:01:11.556Z,28.20
2019-04-07T18:03:58.359Z,33.13
2019-04-07T18:06:47.800Z,35.47
2019-04-07T18:09:34.403Z,37.87
2019-04-07T18:12:19.903Z,30.40
2019-04-07T18:15:10.342Z,35.83
2019-04-07T18:18:03.346Z,25.90
2019-04-07T18:20:39.573Z,30.37
2019-04-07T18:23:28.992Z,35.90
2019-04-07T18:26:04.229Z,28.17
2019-04-07T18:28:54.090Z,28.40
2019-04-07T18:31:28.998Z,33.20
2019-04-07T18:34:11.409Z,27.10
2019-04-07T18:36:56.637Z,35.60
2019-04-07T18:39:43.096Z,31.90
2019-04-07T18:42:29.463Z,38.33
2019-04-07T18:45:16.180Z,46.23
2019-04-07T18:47:54.827Z,44.30
2019-04-07T18:50:28.726Z,39.23
2019-04-07T18:53:14.481Z,34.73
2019-04-07T18:55:58.953Z,29.83
2019-04-07T18:58:31.011Z,46.53
2019-04-07T19:01:12.499Z,36.27
2019-04-07T19:03:53.362Z,51.53
2019-04-07T19:06:48.273Z,31.87
2019-04-07T19:09:27.568Z,31.20
2019-04-07T19:12:30.941Z,40.00
2019-04-07T19:15:15.981Z,46.10
2019-04-07T19:17:55.950Z,37.33
2019-04-07T19:20:42.072Z,43.33
2019-04-07T19:23:21.688Z,36.97
2019-04-07T19:25:56.605Z,36.93
2019-04-07T19:28:34.201Z,37.37
2019-04-07T19:31:19.282Z,29.60
2019-04-07T19:33:55.938Z,33.80
2019-04-07T19:36:46.593Z,40.07
2019-04-07T19:39:23.583Z,36.13
2019-04-07T19:42:08.784Z,37.50
2019-04-07T19:44:55.343Z,33.50
2019-04-07T19:47:32.685Z,30.17
2019-04-07T19:50:11.108Z,28.60
2019-04-07T19:52:46.447Z,30.63
2019-04-07T19:55:22.751Z,27.67
2019-04-07T19:58:09.775Z,28.00
2019-04-07T20:00:54.310Z,30.20
2019-04-07T20:03:40.266Z,34.80
2019-04-07T20:06:26.124Z,22.67
2019-04-07T20:09:19.291Z,29.10
2019-04-07T20:12:04.281Z,26.87
2019-04-07T20:14:51.328Z,32.87
2019-04-07T20:17:50.364Z,27.63
2019-04-07T20:20:40.583Z,28.30
2019-04-07T20:23:35.779Z,30.00
2019-04-07T20:26:11.940Z,29.40
2019-04-07T20:29:07.732Z,24.53
2019-04-07T20:31:56.109Z,28.10
2019-04-07T20:34:37.442Z,26.10
2019-04-07T20:37:09.617Z,26.83
2019-04-07T20:39:44.222Z,26.10
2019-04-07T20:42:29.551Z,26.47
2019-04-07T20:45:23.167Z,29.40
2019-04-07T20:48:01.565Z,32.93
2019-04-07T20:51:01.184Z,28.10
2019-04-07T20:53:52.060Z,26.87
2019-04-07T20:56:34.467Z,36.60
2019-04-07T20:59:29.067Z,32.00
2019-04-07T21:02:08.624Z,36.60
2019-04-07T21:05:00.945Z,28.13
2019-04-07T21:07:34.017Z,28.73
2019-04-07T21:10:11.204Z,29.77
2019-04-07T21:12:49.417Z,29.77
2019-04-07T21:15:41.755Z,30.63
2019-04-07T21:18:21.802Z,26.90
2019-04-07T21:20:58.944Z,29.50
2019-04-07T21:23:46.813Z,29.50
2019-04-07T21:26:42.610Z,26.77
2019-04-07T21:29:33.211Z,26.77
2019-04-07T21:32:18.805Z,25.13
2019-04-07T21:35:11.295Z,29.20
2019-04-07T21:37:49.364Z,27.70
2019-04-07T21:40:32.012Z,30.77
2019-04-07T21:43:11.745Z,24.07
2019-04-07T21:45:57.208Z,31.43
2019-04-07T21:48:49.527Z,29.70
2019-04-07T21:51:41.058Z,29.57
2019-04-07T21:54:21.534Z,28.80
2019-04-07T21:57:04.417Z,28.70
2019-04-07T21:59:39.991Z,33.73
2019-04-07T22:02:13.583Z,31.10
2019-04-07T22:04:54.640Z,29.30
2019-04-07T22:07:44.002Z,29.10
2019-04-07T22:10:11.828Z,25.43
2019-04-07T22:12:38.589Z,32.63
2019-04-07T22:15:11.650Z,28.20
2019-04-07T22:17:37.243Z,27.80
2019-04-07T22:20:05.240Z,30.07
2019-04-07T22:22:31.881Z,31.33
2019-04-07T22:24:58.498Z,24.23
2019-04-07T22:27:27.307Z,24.43
2019-04-07T22:29:53.592Z,32.07
2019-04-07T22:32:22.146Z,29.53
2019-04-07T22:34:48.821Z,28.07
2019-04-07T22:37:17.613Z,30.93
2019-04-07T22:39:45.528Z,35.83
2019-04-07T22:42:16.691Z,33.57
2019-04-07T22:44:43.141Z,31.50
2019-04-07T22:47:12.056Z,27.20
2019-04-07T22:49:38.766Z,25.17
2019-04-07T22:52:06.417Z,29.03
2019-04-07T22:54:33.033Z,30.00
2019-04-07T22:57:00.637Z,29.87
2019-04-07T22:59:28.053Z,28.03
2019-04-07T23:01:55.632Z,28.77
2019-04-07T23:04:25.767Z,33.50
2019-04-07T23:06:52.542Z,26.20
2019-04-07T23:09:19.139Z,31.30
2019-04-07T23:11:46.130Z,33.50
2019-04-07T23:14:13.603Z,36.47
2019-04-07T23:16:40.403Z,31.80
2019-04-07T23:19:07.127Z,33.27
2019-04-07T23:21:34.104Z,36.60
2019-04-07T23:24:01.246Z,34.80
2019-04-07T23:26:28.065Z,32.07
2019-04-07T23:28:54.697Z,32.67
2019-04-07T23:31:21.579Z,31.97
2019-04-07T23:33:48.220Z,30.73
2019-04-07T23:36:14.866Z,31.80
2019-04-07T23:38:41.580Z,36.97
2019-04-07T23:41:08.300Z,36.00
2019-04-07T23:43:35.542Z,32.77
2019-04-07T23:46:02.717Z,29.23
2019-04-07T23:48:29.298Z,32.73
2019-04-07T23:50:56.149Z,29.70
2019-04-07T23:54:00.163Z,32.83
2019-04-07T23:56:27.338Z,31.23
2019-04-07T23:58:54.260Z,50.13
